createdAt,value
2017-08-15T00:00:16.264Z,1006.89
2017-08-15T00:00:51.783Z,1006.82
2017-08-15T00:01:26.932Z,1006.84
2017-08-15T00:02:02.240Z,1006.86
2017-08-15T00:02:37.567Z,1006.82
2017-08-15T00:03:12.887Z,1006.78
2017-08-15T00:03:48.411Z,1006.79
2017-08-15T00:04:24.131Z,1006.82
2017-08-15T00:04:58.875Z,1006.76
2017-08-15T00:05:34.204Z,1006.79
2017-08-15T00:06:09.731Z,1006.84
2017-08-15T00:06:45.068Z,1006.84
2017-08-15T00:07:20.387Z,1006.79
2017-08-15T00:07:55.511Z,1006.76
2017-08-15T00:08:31.044Z,1006.84
2017-08-15T00:09:06.371Z,1006.81
2017-08-15T00:09:41.504Z,1006.72
2017-08-15T00:10:17.212Z,1006.79
2017-08-15T00:10:52.540Z,1006.74
2017-08-15T00:11:27.664Z,1006.80
2017-08-15T00:12:02.841Z,1006.83
2017-08-15T00:12:38.516Z,1006.80
2017-08-15T00:13:13.864Z,1006.85
2017-08-15T00:13:49.184Z,1006.78
2017-08-15T00:14:24.328Z,1006.84
2017-08-15T00:14:59.631Z,1006.75
2017-08-15T00:15:34.970Z,1006.77
2017-08-15T00:16:10.312Z,1006.85
2017-08-15T00:16:45.643Z,1006.78
2017-08-15T00:17:20.972Z,1006.75
2017-08-15T00:17:56.279Z,1006.82
2017-08-15T00:18:31.596Z,1006.86
2017-08-15T00:19:07.130Z,1006.71
2017-08-15T00:19:46.948Z,1006.80
2017-08-15T00:20:21.315Z,1006.80
2017-08-15T00:20:56.664Z,1006.80
2017-08-15T00:21:31.792Z,1006.81
2017-08-15T00:22:07.327Z,1006.75
2017-08-15T00:22:42.680Z,1006.73
2017-08-15T00:23:17.959Z,1006.77
2017-08-15T00:23:53.100Z,1006.77
2017-08-15T00:24:28.856Z,1006.78
2017-08-15T00:25:03.928Z,1006.79
2017-08-15T00:25:39.280Z,1006.75
2017-08-15T00:26:14.596Z,1006.76
2017-08-15T00:26:50.116Z,1006.73
2017-08-15T00:27:25.662Z,1006.74
2017-08-15T00:28:00.587Z,1006.74
2017-08-15T00:28:35.725Z,1006.71
2017-08-15T00:29:11.240Z,1006.76
2017-08-15T00:29:46.568Z,1006.82
2017-08-15T00:30:22.082Z,1006.77
2017-08-15T00:30:57.419Z,1006.77
2017-08-15T00:31:32.540Z,1006.72
2017-08-15T00:32:07.680Z,1006.74
2017-08-15T00:32:43.212Z,1006.67
2017-08-15T00:33:18.527Z,1006.72
2017-08-15T00:33:54.051Z,1006.69
2017-08-15T00:34:29.191Z,1006.76
2017-08-15T00:35:04.707Z,1006.72
2017-08-15T00:35:39.648Z,1006.70
2017-08-15T00:36:15.564Z,1006.70
2017-08-15T00:36:50.483Z,1006.64
2017-08-15T00:37:25.854Z,1006.68
2017-08-15T00:38:01.151Z,1006.68
2017-08-15T00:38:36.871Z,1006.60
2017-08-15T00:39:11.983Z,1006.63
2017-08-15T00:39:47.331Z,1006.70
2017-08-15T00:40:22.468Z,1006.64
2017-08-15T00:40:57.984Z,1006.60
2017-08-15T00:41:33.112Z,1006.70
2017-08-15T00:42:08.436Z,1006.63
2017-08-15T00:42:43.999Z,1006.61
2017-08-15T00:43:18.911Z,1006.63
2017-08-15T00:43:55.015Z,1006.57
2017-08-15T00:44:29.748Z,1006.62
2017-08-15T00:45:05.284Z,1006.66
2017-08-15T00:45:40.411Z,1006.66
2017-08-15T00:46:15.547Z,1006.60
2017-08-15T00:46:51.097Z,1006.60
2017-08-15T00:47:26.396Z,1006.57
2017-08-15T00:48:01.945Z,1006.61
2017-08-15T00:48:38.647Z,1006.68
2017-08-15T00:49:14.368Z,1006.70
2017-08-15T00:49:49.499Z,1006.69
2017-08-15T00:50:24.631Z,1006.64
2017-08-15T00:50:59.952Z,1006.65
2017-08-15T00:51:35.291Z,1006.62
2017-08-15T00:52:12.021Z,1006.64
2017-08-15T00:52:47.543Z,1006.59
2017-08-15T00:53:23.255Z,1006.66
2017-08-15T00:53:58.387Z,1006.63
2017-08-15T00:54:33.512Z,1006.60
2017-08-15T00:55:08.652Z,1006.66
2017-08-15T00:55:44.756Z,1006.60
2017-08-15T00:56:19.503Z,1006.70
2017-08-15T00:56:54.831Z,1006.61
2017-08-15T00:57:30.349Z,1006.66
2017-08-15T00:58:05.316Z,1006.66
2017-08-15T00:58:40.812Z,1006.69
2017-08-15T00:59:16.143Z,1006.68
2017-08-15T00:59:51.463Z,1006.68
2017-08-15T01:00:26.614Z,1006.63
2017-08-15T01:01:02.132Z,1006.62
2017-08-15T01:01:37.251Z,1006.69
2017-08-15T01:02:14.363Z,1006.62
2017-08-15T01:02:49.931Z,1006.65
2017-08-15T01:03:25.226Z,1006.67
2017-08-15T01:04:00.359Z,1006.68
2017-08-15T01:04:35.672Z,1006.67
2017-08-15T01:05:11.015Z,1006.70
2017-08-15T01:05:46.146Z,1006.72
2017-08-15T01:06:21.675Z,1006.71
2017-08-15T01:06:56.993Z,1006.71
2017-08-15T01:07:32.519Z,1006.72
2017-08-15T01:08:07.665Z,1006.71
2017-08-15T01:08:42.985Z,1006.75
2017-08-15T01:09:18.296Z,1006.68
2017-08-15T01:09:53.835Z,1006.76
2017-08-15T01:10:28.769Z,1006.74
2017-08-15T01:11:04.484Z,1006.70
2017-08-15T01:11:39.807Z,1006.78
2017-08-15T01:12:14.947Z,1006.69
2017-08-15T01:12:50.476Z,1006.76
2017-08-15T01:13:25.614Z,1006.74
2017-08-15T01:14:01.320Z,1006.77
2017-08-15T01:14:36.066Z,1006.67
2017-08-15T01:15:11.391Z,1006.72
2017-08-15T01:15:47.108Z,1006.67
2017-08-15T01:16:22.236Z,1006.63
2017-08-15T01:16:57.559Z,1006.68
2017-08-15T01:17:33.108Z,1006.65
2017-08-15T01:18:08.811Z,1006.66
2017-08-15T01:18:56.911Z,1006.68
2017-08-15T01:19:31.943Z,1006.72
2017-08-15T01:20:08.451Z,1006.58
2017-08-15T01:20:42.800Z,1006.66
2017-08-15T01:21:18.136Z,1006.59
2017-08-15T01:21:53.452Z,1006.62
2017-08-15T01:22:29.187Z,1006.67
2017-08-15T01:23:03.916Z,1006.69
2017-08-15T01:23:39.263Z,1006.73
2017-08-15T01:24:14.960Z,1006.66
2017-08-15T01:24:50.312Z,1006.70
2017-08-15T01:25:25.613Z,1006.63
2017-08-15T01:26:00.952Z,1006.69
2017-08-15T01:26:36.291Z,1006.64
2017-08-15T01:27:11.805Z,1006.68
2017-08-15T01:27:46.943Z,1006.71
2017-08-15T01:28:21.906Z,1006.68
2017-08-15T01:28:57.618Z,1006.69
2017-08-15T01:29:32.923Z,1006.74
2017-08-15T01:30:08.463Z,1006.69
2017-08-15T01:30:43.199Z,1006.62
2017-08-15T01:32:00.247Z,1006.67
2017-08-15T01:32:35.955Z,1006.65
2017-08-15T01:33:11.492Z,1006.57
2017-08-15T01:33:46.420Z,1006.56
2017-08-15T01:34:28.179Z,1006.60
2017-08-15T01:35:03.306Z,1006.70
2017-08-15T01:35:39.207Z,1006.66
2017-08-15T01:36:14.525Z,1006.61
2017-08-15T01:36:49.658Z,1006.70
2017-08-15T01:37:25.013Z,1006.65
2017-08-15T01:38:04.908Z,1006.61
2017-08-15T01:38:40.450Z,1006.64
2017-08-15T01:39:15.415Z,1006.66
2017-08-15T01:39:51.303Z,1006.60
2017-08-15T01:40:26.034Z,1006.54
2017-08-15T01:41:01.571Z,1006.65
2017-08-15T01:41:37.458Z,1006.66
2017-08-15T01:42:12.028Z,1006.66
2017-08-15T01:42:47.735Z,1006.59
2017-08-15T01:43:23.082Z,1006.62
2017-08-15T01:43:58.052Z,1006.61
2017-08-15T01:44:33.353Z,1006.62
2017-08-15T01:45:08.661Z,1006.57
2017-08-15T01:45:43.991Z,1006.54
2017-08-15T01:46:19.720Z,1006.58
2017-08-15T01:46:54.648Z,1006.56
2017-08-15T01:47:29.976Z,1006.64
2017-08-15T01:48:05.508Z,1006.61
2017-08-15T01:48:40.820Z,1006.57
2017-08-15T01:49:16.590Z,1006.61
2017-08-15T01:49:51.291Z,1006.52
2017-08-15T01:50:26.651Z,1006.53
2017-08-15T01:51:02.336Z,1006.57
2017-08-15T01:51:37.280Z,1006.54
2017-08-15T01:52:12.603Z,1006.54
2017-08-15T01:52:48.127Z,1006.62
2017-08-15T01:53:27.164Z,1006.57
2017-08-15T01:54:06.898Z,1006.56
2017-08-15T01:54:41.436Z,1006.61
2017-08-15T01:55:17.228Z,1006.60
2017-08-15T01:55:52.287Z,1006.52
2017-08-15T01:56:27.416Z,1006.60
2017-08-15T01:57:02.935Z,1006.58
2017-08-15T01:57:38.250Z,1006.62
2017-08-15T01:58:13.207Z,1006.58
2017-08-15T01:58:48.741Z,1006.61
2017-08-15T01:59:24.048Z,1006.63
2017-08-15T01:59:59.643Z,1006.66
2017-08-15T02:00:34.508Z,1006.55
2017-08-15T02:01:10.239Z,1006.52
2017-08-15T02:01:45.764Z,1006.56
2017-08-15T02:02:21.095Z,1006.57
2017-08-15T02:02:56.416Z,1006.52
2017-08-15T02:03:31.353Z,1006.52
2017-08-15T02:04:06.691Z,1006.51
2017-08-15T02:04:42.023Z,1006.51
2017-08-15T02:05:17.142Z,1006.53
2017-08-15T02:05:52.472Z,1006.57
2017-08-15T02:06:27.807Z,1006.52
2017-08-15T02:07:03.319Z,1006.51
2017-08-15T02:07:38.839Z,1006.51
2017-08-15T02:08:15.019Z,1006.53
2017-08-15T02:08:49.300Z,1006.54
2017-08-15T02:09:24.839Z,1006.52
2017-08-15T02:09:59.967Z,1006.51
2017-08-15T02:10:35.308Z,1006.51
2017-08-15T02:11:10.448Z,1006.54
2017-08-15T02:11:46.130Z,1006.46
2017-08-15T02:12:21.479Z,1006.58
2017-08-15T02:12:56.412Z,1006.52
2017-08-15T02:13:32.723Z,1006.53
2017-08-15T02:14:07.072Z,1006.52
2017-08-15T02:14:42.591Z,1006.55
2017-08-15T02:15:17.771Z,1006.52
2017-08-15T02:15:53.438Z,1006.50
2017-08-15T02:16:28.762Z,1006.56
2017-08-15T02:17:03.904Z,1006.57
2017-08-15T02:17:39.223Z,1006.53
2017-08-15T02:18:14.388Z,1006.50
2017-08-15T02:18:49.897Z,1006.53
2017-08-15T02:19:25.420Z,1006.57
2017-08-15T02:20:00.572Z,1006.55
2017-08-15T02:20:36.420Z,1006.51
2017-08-15T02:21:11.404Z,1006.48
2017-08-15T02:21:47.118Z,1006.57
2017-08-15T02:22:22.055Z,1006.55
2017-08-15T02:22:57.190Z,1006.54
2017-08-15T02:23:32.515Z,1006.51
2017-08-15T02:24:07.847Z,1006.60
2017-08-15T02:24:43.373Z,1006.62
2017-08-15T02:25:18.523Z,1006.65
2017-08-15T02:25:54.031Z,1006.66
2017-08-15T02:26:28.959Z,1006.58
2017-08-15T02:27:04.300Z,1006.64
2017-08-15T02:27:40.000Z,1006.59
2017-08-15T02:28:15.391Z,1006.61
2017-08-15T02:28:51.051Z,1006.68
2017-08-15T02:29:26.011Z,1006.63
2017-08-15T02:30:01.764Z,1006.63
2017-08-15T02:30:36.451Z,1006.68
2017-08-15T02:31:12.182Z,1006.64
2017-08-15T02:31:46.971Z,1006.64
2017-08-15T02:32:22.273Z,1006.60
2017-08-15T02:32:58.167Z,1006.62
2017-08-15T02:33:33.127Z,1006.64
2017-08-15T02:34:08.429Z,1006.57
2017-08-15T02:34:43.787Z,1006.59
2017-08-15T02:35:18.920Z,1006.59
2017-08-15T02:35:54.231Z,1006.60
2017-08-15T02:36:29.555Z,1006.64
2017-08-15T02:37:05.067Z,1006.62
2017-08-15T02:37:40.212Z,1006.69
2017-08-15T02:38:15.539Z,1006.67
2017-08-15T02:38:57.464Z,1006.68
2017-08-15T02:39:32.791Z,1006.72
2017-08-15T02:40:07.940Z,1006.73
2017-08-15T02:40:43.656Z,1006.69
2017-08-15T02:41:18.964Z,1006.70
2017-08-15T02:41:53.915Z,1006.85
2017-08-15T02:42:29.252Z,1006.79
2017-08-15T02:43:04.556Z,1006.79
2017-08-15T02:43:40.095Z,1006.74
2017-08-15T02:44:15.419Z,1006.73
2017-08-15T02:44:50.751Z,1006.74
2017-08-15T02:45:25.912Z,1006.71
2017-08-15T02:46:01.201Z,1006.80
2017-08-15T02:46:36.734Z,1006.74
2017-08-15T02:47:12.072Z,1006.72
2017-08-15T02:47:47.596Z,1006.77
2017-08-15T02:48:23.131Z,1006.82
2017-08-15T02:48:58.449Z,1006.78
2017-08-15T02:49:33.979Z,1006.80
2017-08-15T02:50:13.168Z,1006.80
2017-08-15T02:50:48.280Z,1006.77
2017-08-15T02:51:23.221Z,1006.72
2017-08-15T02:51:58.919Z,1006.72
2017-08-15T02:52:33.476Z,1006.74
2017-08-15T02:53:08.797Z,1006.72
2017-08-15T02:53:44.528Z,1006.75
2017-08-15T02:54:20.018Z,1006.67
2017-08-15T02:54:55.178Z,1006.76
2017-08-15T02:55:30.495Z,1006.71
2017-08-15T02:56:06.055Z,1006.72
2017-08-15T02:56:40.963Z,1006.75
2017-08-15T02:57:17.074Z,1006.68
2017-08-15T02:57:51.440Z,1006.73
2017-08-15T02:58:27.151Z,1006.74
2017-08-15T02:59:02.485Z,1006.67
2017-08-15T02:59:38.364Z,1006.74
2017-08-15T03:00:12.943Z,1006.78
2017-08-15T03:00:48.080Z,1006.72
2017-08-15T03:01:23.619Z,1006.70
2017-08-15T03:01:58.927Z,1006.77
2017-08-15T03:02:34.451Z,1006.72
2017-08-15T03:03:09.405Z,1006.67
2017-08-15T03:03:45.104Z,1006.72
2017-08-15T03:04:20.635Z,1006.65
2017-08-15T03:04:59.084Z,1006.75
2017-08-15T03:05:34.559Z,1006.65
2017-08-15T03:06:20.667Z,1006.68
2017-08-15T03:06:55.352Z,1006.72
2017-08-15T03:07:30.471Z,1006.72
2017-08-15T03:08:06.199Z,1006.65
2017-08-15T03:08:41.322Z,1006.66
2017-08-15T03:09:16.659Z,1006.74
2017-08-15T03:09:51.784Z,1006.70
2017-08-15T03:10:27.124Z,1006.69
2017-08-15T03:11:02.644Z,1006.64
2017-08-15T03:11:37.796Z,1006.70
2017-08-15T03:12:13.301Z,1006.73
2017-08-15T03:12:48.672Z,1006.76
2017-08-15T03:13:24.154Z,1006.68
2017-08-15T03:13:59.687Z,1006.72
2017-08-15T03:14:34.616Z,1006.64
2017-08-15T03:15:10.141Z,1006.74
2017-08-15T03:15:45.279Z,1006.71
2017-08-15T03:16:20.638Z,1006.72
2017-08-15T03:16:55.934Z,1006.75
2017-08-15T03:17:31.664Z,1006.73
2017-08-15T03:18:12.668Z,1006.68
2017-08-15T03:18:47.747Z,1006.75
2017-08-15T03:19:23.099Z,1006.73
2017-08-15T03:19:57.838Z,1006.66
2017-08-15T03:20:33.547Z,1006.70
2017-08-15T03:21:08.307Z,1006.72
2017-08-15T03:21:44.427Z,1006.67
2017-08-15T03:22:19.920Z,1006.63
2017-08-15T03:22:54.688Z,1006.75
2017-08-15T03:23:30.432Z,1006.75
2017-08-15T03:24:05.531Z,1006.64
2017-08-15T03:24:40.463Z,1006.61
2017-08-15T03:25:16.176Z,1006.63
2017-08-15T03:25:51.348Z,1006.65
2017-08-15T03:26:26.652Z,1006.63
2017-08-15T03:27:02.391Z,1006.67
2017-08-15T03:27:37.739Z,1006.72
2017-08-15T03:28:12.836Z,1006.65
2017-08-15T03:28:47.971Z,1006.66
2017-08-15T03:29:23.721Z,1006.66
2017-08-15T03:29:58.423Z,1006.60
2017-08-15T03:30:33.941Z,1006.63
2017-08-15T03:31:09.072Z,1006.61
2017-08-15T03:31:44.450Z,1006.55
2017-08-15T03:32:20.132Z,1006.63
2017-08-15T03:32:54.875Z,1006.59
2017-08-15T03:33:30.389Z,1006.62
2017-08-15T03:34:06.111Z,1006.71
2017-08-15T03:34:41.264Z,1006.67
2017-08-15T03:35:16.963Z,1006.71
2017-08-15T03:35:52.107Z,1006.69
2017-08-15T03:36:27.035Z,1006.70
2017-08-15T03:37:08.269Z,1006.76
2017-08-15T03:37:43.148Z,1006.74
2017-08-15T03:38:18.457Z,1006.72
2017-08-15T03:38:53.888Z,1006.68
2017-08-15T03:39:28.739Z,1006.71
2017-08-15T03:40:04.644Z,1006.70
2017-08-15T03:40:40.163Z,1006.74
2017-08-15T03:41:19.611Z,1006.77
2017-08-15T03:41:54.096Z,1006.72
2017-08-15T03:42:29.433Z,1006.74
2017-08-15T03:43:04.556Z,1006.69
2017-08-15T03:43:40.269Z,1006.72
2017-08-15T03:44:15.011Z,1006.74
2017-08-15T03:44:50.939Z,1006.72
2017-08-15T03:45:26.063Z,1006.67
2017-08-15T03:46:01.596Z,1006.67
2017-08-15T03:46:36.352Z,1006.69
2017-08-15T03:47:12.059Z,1006.78
2017-08-15T03:47:47.179Z,1006.68
2017-08-15T03:48:22.335Z,1006.67
2017-08-15T03:48:57.837Z,1006.76
2017-08-15T03:49:33.572Z,1006.77
2017-08-15T03:50:08.703Z,1006.78
2017-08-15T03:50:44.025Z,1006.69
2017-08-15T03:51:27.348Z,1006.72
2017-08-15T03:52:03.136Z,1006.71
2017-08-15T03:52:38.459Z,1006.62
2017-08-15T03:53:14.184Z,1006.63
2017-08-15T03:53:48.923Z,1006.67
2017-08-15T03:54:33.335Z,1006.61
2017-08-15T03:55:08.035Z,1006.72
2017-08-15T03:55:43.367Z,1006.68
2017-08-15T03:56:18.735Z,1006.61
2017-08-15T03:56:54.027Z,1006.69
2017-08-15T03:57:29.171Z,1006.60
2017-08-15T03:58:04.471Z,1006.57
2017-08-15T03:58:39.987Z,1006.68
2017-08-15T03:59:15.519Z,1006.56
2017-08-15T03:59:51.066Z,1006.62
2017-08-15T04:00:26.575Z,1006.53
2017-08-15T04:01:01.335Z,1006.63
2017-08-15T04:01:37.275Z,1006.60
2017-08-15T04:02:11.775Z,1006.62
2017-08-15T04:02:47.317Z,1006.55
2017-08-15T04:03:22.844Z,1006.63
2017-08-15T04:03:58.182Z,1006.63
2017-08-15T04:04:33.503Z,1006.68
2017-08-15T04:05:08.427Z,1006.63
2017-08-15T04:05:44.159Z,1006.62
2017-08-15T04:06:19.535Z,1006.59
2017-08-15T04:06:54.435Z,1006.66
2017-08-15T04:07:42.331Z,1006.59
2017-08-15T04:08:17.311Z,1006.64
2017-08-15T04:08:52.063Z,1006.69
2017-08-15T04:09:27.395Z,1006.66
2017-08-15T04:10:03.291Z,1006.69
2017-08-15T04:10:39.011Z,1006.67
2017-08-15T04:11:13.548Z,1006.68
2017-08-15T04:11:48.876Z,1006.69
2017-08-15T04:12:24.021Z,1006.59
2017-08-15T04:12:59.563Z,1006.63
2017-08-15T04:13:35.252Z,1006.66
2017-08-15T04:14:10.595Z,1006.74
2017-08-15T04:14:53.816Z,1006.71
2017-08-15T04:15:29.704Z,1006.64
2017-08-15T04:16:05.219Z,1006.68
2017-08-15T04:16:40.155Z,1006.59
2017-08-15T04:17:16.478Z,1006.71
2017-08-15T04:17:51.211Z,1006.68
2017-08-15T04:18:26.532Z,1006.68
2017-08-15T04:19:01.284Z,1006.66
2017-08-15T04:19:36.599Z,1006.71
2017-08-15T04:20:12.340Z,1006.66
2017-08-15T04:20:47.844Z,1006.65
2017-08-15T04:21:23.396Z,1006.57
2017-08-15T04:21:58.320Z,1006.58
2017-08-15T04:22:33.842Z,1006.58
2017-08-15T04:23:09.180Z,1006.55
2017-08-15T04:23:44.501Z,1006.64
2017-08-15T04:24:19.634Z,1006.56
2017-08-15T04:24:54.781Z,1006.50
2017-08-15T04:25:30.088Z,1006.50
2017-08-15T04:26:11.307Z,1006.50
2017-08-15T04:26:45.896Z,1006.66
2017-08-15T04:27:21.415Z,1006.64
2017-08-15T04:27:56.388Z,1006.60
2017-08-15T04:28:31.879Z,1006.64
2017-08-15T04:29:07.024Z,1006.65
2017-08-15T04:29:42.336Z,1006.63
2017-08-15T04:30:17.888Z,1006.59
2017-08-15T04:30:53.395Z,1006.64
2017-08-15T04:31:34.602Z,1006.58
2017-08-15T04:32:09.503Z,1006.70
2017-08-15T04:32:53.207Z,1006.64
2017-08-15T04:33:28.615Z,1006.71
2017-08-15T04:34:03.747Z,1006.74
2017-08-15T04:34:38.883Z,1006.70
2017-08-15T04:35:14.195Z,1006.72
2017-08-15T04:35:50.128Z,1006.63
2017-08-15T04:36:24.871Z,1006.66
2017-08-15T04:37:00.376Z,1006.68
2017-08-15T04:37:35.330Z,1006.74
2017-08-15T04:38:10.891Z,1006.70
2017-08-15T04:38:47.247Z,1006.65
2017-08-15T04:39:21.312Z,1006.71
2017-08-15T04:39:56.839Z,1006.64
2017-08-15T04:40:31.964Z,1006.74
2017-08-15T04:41:07.491Z,1006.74
2017-08-15T04:41:43.002Z,1006.76
2017-08-15T04:42:18.133Z,1006.65
2017-08-15T04:42:53.684Z,1006.79
2017-08-15T04:43:29.215Z,1006.65
2017-08-15T04:44:04.136Z,1006.75
2017-08-15T04:44:39.451Z,1006.73
2017-08-15T04:45:15.181Z,1006.69
2017-08-15T04:45:50.592Z,1006.77
2017-08-15T04:46:25.631Z,1006.73
2017-08-15T04:47:00.956Z,1006.70
2017-08-15T04:47:36.698Z,1006.72
2017-08-15T04:48:12.408Z,1006.68
2017-08-15T04:48:46.784Z,1006.65
2017-08-15T04:49:22.080Z,1006.77
2017-08-15T04:49:57.800Z,1006.78
2017-08-15T04:50:39.332Z,1006.75
2017-08-15T04:51:14.166Z,1006.72
2017-08-15T04:51:48.851Z,1006.71
2017-08-15T04:52:23.967Z,1006.66
2017-08-15T04:52:59.117Z,1006.70
2017-08-15T04:53:34.440Z,1006.74
2017-08-15T04:54:10.175Z,1006.78
2017-08-15T04:54:51.664Z,1006.76
2017-08-15T04:55:27.598Z,1006.72
2017-08-15T04:56:59.894Z,1006.77
2017-08-15T04:57:35.459Z,1006.78
2017-08-15T04:58:10.811Z,1006.79
2017-08-15T04:58:45.531Z,1006.84
2017-08-15T04:59:20.883Z,1006.79
2017-08-15T04:59:56.588Z,1006.90
2017-08-15T05:00:32.150Z,1006.88
2017-08-15T05:01:07.048Z,1006.88
2017-08-15T05:01:42.363Z,1006.87
2017-08-15T05:02:17.512Z,1006.85
2017-08-15T05:02:53.037Z,1006.89
2017-08-15T05:03:27.988Z,1006.91
2017-08-15T05:04:03.711Z,1006.89
2017-08-15T05:04:39.014Z,1006.94
2017-08-15T05:05:14.144Z,1006.96
2017-08-15T05:05:50.111Z,1006.87
2017-08-15T05:06:25.003Z,1006.88
2017-08-15T05:07:00.131Z,1006.88
2017-08-15T05:07:35.288Z,1006.86
2017-08-15T05:08:11.283Z,1006.84
2017-08-15T05:08:45.924Z,1006.80
2017-08-15T05:09:21.663Z,1006.81
2017-08-15T05:09:56.599Z,1006.83
2017-08-15T05:10:32.119Z,1006.83
2017-08-15T05:11:07.448Z,1006.78
2017-08-15T05:11:42.976Z,1006.85
2017-08-15T05:12:18.100Z,1006.74
2017-08-15T05:12:53.625Z,1006.80
2017-08-15T05:13:28.576Z,1006.72
2017-08-15T05:14:04.104Z,1006.76
2017-08-15T05:14:39.822Z,1006.76
2017-08-15T05:15:14.942Z,1006.79
2017-08-15T05:15:50.271Z,1006.77
2017-08-15T05:16:25.215Z,1006.82
2017-08-15T05:17:00.539Z,1006.80
2017-08-15T05:17:36.054Z,1006.87
2017-08-15T05:18:11.396Z,1006.87
2017-08-15T05:18:51.236Z,1006.84
2017-08-15T05:19:25.611Z,1006.85
2017-08-15T05:20:00.927Z,1006.85
2017-08-15T05:20:36.255Z,1006.87
2017-08-15T05:21:11.576Z,1006.87
2017-08-15T05:21:46.907Z,1006.79
2017-08-15T05:22:22.245Z,1006.83
2017-08-15T05:22:57.571Z,1006.84
2017-08-15T05:23:32.907Z,1006.84
2017-08-15T05:24:08.234Z,1006.82
2017-08-15T05:24:43.589Z,1006.83
2017-08-15T05:25:18.908Z,1006.81
2017-08-15T05:25:54.231Z,1006.86
2017-08-15T05:26:29.560Z,1006.87
2017-08-15T05:27:04.889Z,1006.85
2017-08-15T05:27:40.220Z,1006.85
2017-08-15T05:28:15.545Z,1006.89
2017-08-15T05:28:50.885Z,1006.90
2017-08-15T05:29:26.215Z,1006.91
2017-08-15T05:30:14.711Z,1006.86
2017-08-15T05:31:08.297Z,1007.04
2017-08-15T05:31:42.470Z,1006.82
2017-08-15T05:32:17.812Z,1006.90
2017-08-15T05:32:53.143Z,1006.89
2017-08-15T05:33:28.469Z,1006.92
2017-08-15T05:34:03.796Z,1006.89
2017-08-15T05:34:39.127Z,1006.87
2017-08-15T05:35:14.479Z,1006.90
2017-08-15T05:35:49.784Z,1006.99
2017-08-15T05:36:25.121Z,1006.97
2017-08-15T05:37:00.455Z,1006.92
2017-08-15T05:37:35.803Z,1006.90
2017-08-15T05:38:11.130Z,1006.86
2017-08-15T05:38:57.644Z,1006.88
2017-08-15T05:39:32.972Z,1006.84
2017-08-15T05:40:08.327Z,1006.91
2017-08-15T05:40:43.639Z,1006.86
2017-08-15T05:41:18.975Z,1006.84
2017-08-15T05:41:54.309Z,1006.88
2017-08-15T05:42:29.639Z,1006.92
2017-08-15T05:43:04.964Z,1006.89
2017-08-15T05:43:40.295Z,1006.89
2017-08-15T05:44:18.836Z,1006.91
2017-08-15T05:45:03.779Z,1006.89
2017-08-15T05:45:39.091Z,1006.88
2017-08-15T05:46:14.432Z,1006.93
2017-08-15T05:46:49.775Z,1006.89
2017-08-15T05:47:25.084Z,1006.82
2017-08-15T05:48:00.412Z,1006.84
2017-08-15T05:48:35.745Z,1006.80
2017-08-15T05:49:11.095Z,1006.81
2017-08-15T05:49:48.036Z,1006.91
2017-08-15T05:50:29.764Z,1006.88
2017-08-15T05:51:11.475Z,1006.88
2017-08-15T05:51:46.801Z,1006.91
2017-08-15T05:52:22.131Z,1006.88
2017-08-15T05:52:57.456Z,1006.83
2017-08-15T05:53:32.787Z,1006.90
2017-08-15T05:54:08.128Z,1006.90
2017-08-15T05:54:48.261Z,1006.95
2017-08-15T05:55:23.612Z,1006.87
2017-08-15T05:55:58.924Z,1006.87
2017-08-15T05:56:34.252Z,1006.90
2017-08-15T05:57:09.587Z,1006.92
2017-08-15T05:57:44.911Z,1006.95
2017-08-15T05:58:20.254Z,1006.89
2017-08-15T05:58:55.576Z,1006.89
2017-08-15T05:59:30.920Z,1006.85
2017-08-15T06:00:06.247Z,1006.91
2017-08-15T06:00:41.592Z,1006.86
2017-08-15T06:01:16.908Z,1006.90
2017-08-15T06:01:52.235Z,1006.90
2017-08-15T06:02:27.571Z,1006.88
2017-08-15T06:03:04.495Z,1006.87
2017-08-15T06:03:44.644Z,1006.92
2017-08-15T06:04:19.956Z,1006.89
2017-08-15T06:04:55.291Z,1006.95
2017-08-15T06:05:30.627Z,1006.93
2017-08-15T06:06:05.952Z,1006.93
2017-08-15T06:06:41.276Z,1006.89
2017-08-15T06:07:16.611Z,1006.90
2017-08-15T06:07:51.940Z,1006.91
2017-08-15T06:08:27.271Z,1006.87
2017-08-15T06:09:02.610Z,1006.94
2017-08-15T06:09:37.945Z,1006.89
2017-08-15T06:10:13.268Z,1006.87
2017-08-15T06:10:48.623Z,1006.88
2017-08-15T06:11:23.927Z,1006.88
2017-08-15T06:11:59.256Z,1006.90
2017-08-15T06:12:34.596Z,1006.94
2017-08-15T06:13:09.921Z,1006.88
2017-08-15T06:13:45.251Z,1006.96
2017-08-15T06:14:20.580Z,1006.91
2017-08-15T06:14:55.912Z,1006.90
2017-08-15T06:15:31.232Z,1006.85
2017-08-15T06:16:06.575Z,1006.96
2017-08-15T06:16:41.900Z,1006.88
2017-08-15T06:17:23.633Z,1006.89
2017-08-15T06:17:58.960Z,1006.82
2017-08-15T06:18:34.287Z,1006.88
2017-08-15T06:19:09.619Z,1006.90
2017-08-15T06:19:44.959Z,1006.89
2017-08-15T06:20:20.279Z,1006.84
2017-08-15T06:21:05.240Z,1006.79
2017-08-15T06:21:40.662Z,1006.84
2017-08-15T06:22:15.923Z,1006.81
2017-08-15T06:22:51.203Z,1006.78
2017-08-15T06:23:26.571Z,1006.77
2017-08-15T06:24:01.871Z,1006.75
2017-08-15T06:24:37.221Z,1006.72
2017-08-15T06:25:12.532Z,1006.75
2017-08-15T06:25:48.907Z,1006.77
2017-08-15T06:26:23.207Z,1006.71
2017-08-15T06:26:58.654Z,1006.69
2017-08-15T06:27:33.848Z,1006.70
2017-08-15T06:28:09.431Z,1006.71
2017-08-15T06:28:44.523Z,1006.65
2017-08-15T06:29:19.925Z,1006.62
2017-08-15T06:29:55.344Z,1006.62
2017-08-15T06:30:30.509Z,1006.62
2017-08-15T06:31:05.981Z,1006.64
2017-08-15T06:31:41.179Z,1006.59
2017-08-15T06:32:16.508Z,1006.62
2017-08-15T06:32:51.836Z,1006.61
2017-08-15T06:33:27.166Z,1006.62
2017-08-15T06:34:05.692Z,1006.56
2017-08-15T06:34:41.031Z,1006.59
2017-08-15T06:35:16.360Z,1006.54
2017-08-15T06:35:51.688Z,1006.61
2017-08-15T06:36:27.048Z,1006.53
2017-08-15T06:37:02.345Z,1006.52
2017-08-15T06:37:37.681Z,1006.59
2017-08-15T06:38:13.004Z,1006.63
2017-08-15T06:38:48.349Z,1006.56
2017-08-15T06:39:23.663Z,1006.54
2017-08-15T06:39:58.995Z,1006.62
2017-08-15T06:40:34.439Z,1006.60
2017-08-15T06:41:09.652Z,1006.56
2017-08-15T06:41:45.013Z,1006.52
2017-08-15T06:42:20.328Z,1006.52
2017-08-15T06:42:55.647Z,1006.50
2017-08-15T06:43:30.980Z,1006.56
2017-08-15T06:44:15.912Z,1006.52
2017-08-15T06:44:52.856Z,1006.51
2017-08-15T06:45:37.781Z,1006.55
2017-08-15T06:46:13.107Z,1006.48
2017-08-15T06:46:48.458Z,1006.48
2017-08-15T06:47:23.758Z,1006.57
2017-08-15T06:48:31.647Z,1006.61
2017-08-15T06:49:06.302Z,1006.43
2017-08-15T06:49:46.427Z,1006.43
2017-08-15T06:50:21.764Z,1006.58
2017-08-15T06:51:06.693Z,1006.49
2017-08-15T06:51:42.037Z,1006.53
2017-08-15T06:52:17.357Z,1006.55
2017-08-15T06:52:52.680Z,1006.50
2017-08-15T06:53:39.215Z,1006.51
2017-08-15T06:54:22.544Z,1006.50
2017-08-15T06:54:57.880Z,1006.55
2017-08-15T06:55:33.208Z,1006.58
2017-08-15T06:56:08.533Z,1006.61
2017-08-15T06:57:06.292Z,1006.62
2017-08-15T06:57:41.596Z,1006.76
2017-08-15T06:58:16.923Z,1006.71
2017-08-15T06:58:52.246Z,1006.78
2017-08-15T06:59:27.575Z,1006.82
2017-08-15T07:00:17.319Z,1006.73
2017-08-15T07:01:02.249Z,1006.79
2017-08-15T07:02:00.006Z,1006.86
2017-08-15T07:02:35.301Z,1006.81
2017-08-15T07:03:10.643Z,1006.78
2017-08-15T07:04:14.777Z,1006.80
2017-08-15T07:04:50.096Z,1006.83
2017-08-15T07:05:25.432Z,1006.74
2017-08-15T07:06:00.759Z,1006.81
2017-08-15T07:06:36.097Z,1006.75
2017-08-15T07:07:14.644Z,1006.81
2017-08-15T07:07:49.962Z,1006.82
2017-08-15T07:08:25.288Z,1006.80
2017-08-15T07:09:13.424Z,1006.81
2017-08-15T07:09:48.752Z,1006.78
2017-08-15T07:10:27.292Z,1006.74
2017-08-15T07:11:02.609Z,1006.79
2017-08-15T07:11:37.954Z,1006.71
2017-08-15T07:12:13.283Z,1006.66
2017-08-15T07:12:48.615Z,1006.72
2017-08-15T07:13:23.945Z,1006.68
2017-08-15T07:13:59.272Z,1006.69
2017-08-15T07:14:34.607Z,1006.70
2017-08-15T07:15:09.932Z,1006.67
2017-08-15T07:15:53.268Z,1006.59
2017-08-15T07:16:28.594Z,1006.67